Andrews Air Force Base, Maryland
Current Conditions -  °F | °C
As of 2:58 AM on Sunday 26 Oct 2014 (Local Time) from KADW Reporting Station
Clear Clear  
Wind Chill: 51°   Ceiling: Unl
Heat Index: 51°   Visibility: 10mi
Dew Point: 44°   Wind: 5mph
Humidity: 79%   Direction: 220°SW
Pressure: 29.68"   Gusts: NA
Location:  38.8062°N, 76.8756°W
Report Text: KADW 260658Z AUTO 22004KT 10SM CLR 10/07 A2968 RMK AO2 SLP057 T01030068 $
Loading
Personal Weather Stations






























Interactive Weather Map New forecast layout! Learn more

10-Day Weather Forecast

Advertisements
Track Severe Weather on mobile